Pagrindinis puslapis
METAR-TAF:

METAR-TAF

Oro uostai :

Gardinas, Baltarusija

platuma: 53-36-06N, ilguma: 024-03-18E, Aukštis: 135 m

Dabartinis oras

Ataskaita buvo paskelbta 54 minutes, ne 06:00 UTC
Vėjas 4 kt iš Rytų
Temperatūra -10°C
Drėgmė 100%
Slėgis 1014 hPa
Matomumas: 6000 m

METAR: UMMG 230600Z 08002MPS 6000 NSC M10/M10 Q1014 R35/CLRD// NOSIG

Laikas: 09:54 (06:54 UTC)

Prognozė

Ataskaita buvo paskelbta 2 valandos ir 24 minutes, ne 04:30 UTC
Prognozė galioja nuo 23 metu 05 UTC su 23 metu 15 UTC
Vėjas 10 kt iš Šiaurės Rytų
Matomumas: 6000 m
Išsisklaidę debesys ne aukštis 2000 ft
Laikinai
nuo 23 metu 05 UTC su 23 metu 08 UTC
Matomumas: 3000 m
Su prošvaistėmis ne aukštis 1000 ft
rūkana
Laikinai
nuo 23 metu 08 UTC su 23 metu 15 UTC
Vėjas 6 kt iš Rytų/Šiaurės Rytų su gūsio iki 16 kt
Su prošvaistėmis ne aukštis 1000 ft
sniegas

TAF: UMMG 230430Z 2305/2315 05005MPS 6000 SCT020 TEMPO 2305/2308 3000 BR BKN010 TEMPO 2308/2315 07003G08MPS -SN BKN010

Orai ataskaitas ir orų prognozės (METAR, TAF).

turimą stotys yra geltonos ir raudonos taškus žemėlapyje.

Perkelti pele per norėdami pamatyti stoties vardą.

Tada spustelėkite, norėdami matyti oro stebėjimo ir prognozės.

Norėdami pakeisti žemėlapį: spustelėkite ant žalios mygtukų su juodo kryžiaus žemyn,; žalią mygtuką su brūkšneliu, jei norite nutolinti; arba žalių rodyklių gretimoms žemėlapius.


METAR-TAF: